createdAt,value
2023-09-13T00:02:11.722Z,97174.00
2023-09-13T00:04:40.098Z,97172.00
2023-09-13T00:07:08.430Z,97172.00
2023-09-13T00:09:42.105Z,97162.00
2023-09-13T00:12:10.541Z,97177.00
2023-09-13T00:14:38.966Z,97172.00
2023-09-13T00:17:07.255Z,97180.00
2023-09-13T00:19:38.911Z,97179.00
2023-09-13T00:22:07.558Z,97175.00
2023-09-13T00:24:37.123Z,97183.00
2023-09-13T00:27:06.038Z,97184.00
2023-09-13T00:29:35.866Z,97183.00
2023-09-13T00:32:04.519Z,97177.00
2023-09-13T00:34:32.755Z,97184.00
2023-09-13T00:37:00.993Z,97190.00
2023-09-13T00:39:29.154Z,97208.00
2023-09-13T00:42:00.109Z,97199.00
2023-09-13T00:44:28.281Z,97199.00
2023-09-13T00:46:56.986Z,97205.00
2023-09-13T00:49:25.482Z,97215.00
2023-09-13T00:51:58.618Z,97223.00
2023-09-13T00:54:28.074Z,97215.00
2023-09-13T00:56:56.389Z,97221.00
2023-09-13T00:59:27.256Z,97227.00
2023-09-13T01:01:55.563Z,97230.00
2023-09-13T01:04:24.329Z,97231.00
2023-09-13T01:06:53.904Z,97223.00
2023-09-13T01:09:22.620Z,97230.00
2023-09-13T01:11:52.302Z,97228.00
2023-09-13T01:14:20.550Z,97228.00
2023-09-13T01:17:00.469Z,97226.00
2023-09-13T01:19:49.081Z,97236.00
2023-09-13T01:23:02.222Z,97243.00
2023-09-13T01:26:07.851Z,97253.00
2023-09-13T01:28:40.837Z,97245.00
2023-09-13T01:31:11.944Z,97249.00
2023-09-13T01:33:40.803Z,97252.00
2023-09-13T01:36:09.472Z,97244.00
2023-09-13T01:38:38.186Z,97245.00
2023-09-13T01:41:12.837Z,97253.00
2023-09-13T01:43:44.891Z,97246.00
2023-09-13T01:46:14.937Z,97241.00
2023-09-13T01:48:44.486Z,97257.00
2023-09-13T01:51:13.145Z,97238.00
2023-09-13T01:53:48.827Z,97242.00
2023-09-13T01:56:22.282Z,97259.00
2023-09-13T01:58:52.632Z,97265.00
2023-09-13T02:01:21.608Z,97258.00
2023-09-13T02:03:50.033Z,97264.00
2023-09-13T02:06:18.354Z,97261.00
2023-09-13T02:08:47.223Z,97253.00
2023-09-13T02:11:15.405Z,97260.00
2023-09-13T02:13:44.001Z,97249.00
2023-09-13T02:16:14.140Z,97253.00
2023-09-13T02:18:43.025Z,97261.00
2023-09-13T02:21:11.697Z,97254.00
2023-09-13T02:23:43.213Z,97248.00
2023-09-13T02:26:21.152Z,97242.00
2023-09-13T02:28:49.467Z,97253.00
2023-09-13T02:31:24.884Z,97243.00
2023-09-13T02:33:54.345Z,97238.00
2023-09-13T02:36:23.266Z,97243.00
2023-09-13T02:38:51.806Z,97240.00
2023-09-13T02:41:20.029Z,97240.00
2023-09-13T02:43:48.275Z,97246.00
2023-09-13T02:46:16.751Z,97236.00
2023-09-13T02:48:46.987Z,97239.00
2023-09-13T02:51:16.011Z,97239.00
2023-09-13T02:53:44.650Z,97238.00
2023-09-13T02:56:13.616Z,97239.00
2023-09-13T02:58:42.525Z,97255.00
2023-09-13T03:01:12.659Z,97255.00
2023-09-13T03:03:43.825Z,97254.00
2023-09-13T03:06:16.605Z,97263.00
2023-09-13T03:08:45.995Z,97255.00
2023-09-13T03:11:16.392Z,97253.00
2023-09-13T03:13:46.505Z,97256.00
2023-09-13T03:16:16.896Z,97253.00
2023-09-13T03:18:46.577Z,97249.00
2023-09-13T03:21:20.060Z,97256.00
2023-09-13T03:23:51.330Z,97267.00
2023-09-13T03:26:22.117Z,97262.00
2023-09-13T03:28:52.443Z,97272.00
2023-09-13T03:31:24.138Z,97271.00
2023-09-13T03:33:56.164Z,97264.00
2023-09-13T03:36:29.426Z,97271.00
2023-09-13T03:38:59.668Z,97264.00
2023-09-13T03:41:29.891Z,97267.00
2023-09-13T03:43:58.082Z,97261.00
2023-09-13T03:46:27.240Z,97266.00
2023-09-13T03:48:58.321Z,97262.00
2023-09-13T03:51:27.911Z,97271.00
2023-09-13T03:53:56.324Z,97275.00
2023-09-13T03:56:24.604Z,97277.00
2023-09-13T03:58:52.993Z,97276.00
2023-09-13T04:01:21.831Z,97283.00
2023-09-13T04:03:50.456Z,97285.00
2023-09-13T04:06:19.658Z,97291.00
2023-09-13T04:08:49.348Z,97279.00
2023-09-13T04:11:17.551Z,97293.00
2023-09-13T04:13:45.933Z,97291.00
2023-09-13T04:16:18.514Z,97284.00
2023-09-13T04:18:46.819Z,97282.00
2023-09-13T04:21:15.780Z,97273.00
2023-09-13T04:23:44.246Z,97282.00
2023-09-13T04:26:20.217Z,97288.00
2023-09-13T04:28:49.215Z,97290.00
2023-09-13T04:31:17.886Z,97305.00
2023-09-13T04:33:55.264Z,97293.00
2023-09-13T04:36:28.060Z,97299.00
2023-09-13T04:38:58.598Z,97301.00
2023-09-13T04:41:28.643Z,97292.00
2023-09-13T04:43:56.981Z,97303.00
2023-09-13T04:46:25.191Z,97307.00
2023-09-13T04:48:53.411Z,97309.00
2023-09-13T04:51:21.697Z,97312.00
2023-09-13T04:53:50.756Z,97315.00
2023-09-13T04:56:19.011Z,97320.00
2023-09-13T04:58:50.745Z,97312.00
2023-09-13T05:01:19.011Z,97316.00
2023-09-13T05:03:49.448Z,97314.00
2023-09-13T05:06:18.075Z,97320.00
2023-09-13T05:08:46.853Z,97317.00
2023-09-13T05:11:22.475Z,97329.00
2023-09-13T05:13:52.656Z,97318.00
2023-09-13T05:16:21.337Z,97324.00
2023-09-13T05:18:49.798Z,97335.00
2023-09-13T05:21:18.008Z,97341.00
2023-09-13T05:23:46.468Z,97338.00
2023-09-13T05:26:14.910Z,97342.00
2023-09-13T05:28:43.286Z,97335.00
2023-09-13T05:31:12.923Z,97331.00
2023-09-13T05:33:41.103Z,97349.00
2023-09-13T05:36:09.902Z,97342.00
2023-09-13T05:38:38.148Z,97357.00
2023-09-13T05:41:08.420Z,97353.00
2023-09-13T05:43:36.921Z,97368.00
2023-09-13T05:46:05.491Z,97363.00
2023-09-13T05:48:36.793Z,97351.00
2023-09-13T05:51:06.317Z,97357.00
2023-09-13T05:53:34.602Z,97366.00
2023-09-13T05:56:04.558Z,97373.00
2023-09-13T05:58:32.880Z,97367.00
2023-09-13T06:01:02.145Z,97366.00
2023-09-13T06:03:31.741Z,97369.00
2023-09-13T06:06:01.408Z,97363.00
2023-09-13T06:08:29.658Z,97367.00
2023-09-13T06:10:58.364Z,97374.00
2023-09-13T06:13:26.705Z,97368.00
2023-09-13T06:15:55.068Z,97375.00
2023-09-13T06:18:24.581Z,97376.00
2023-09-13T06:20:53.307Z,97369.00
2023-09-13T06:23:40.473Z,97378.00
2023-09-13T06:26:09.502Z,97371.00
2023-09-13T06:28:37.779Z,97386.00
2023-09-13T06:31:06.134Z,97372.00
2023-09-13T06:36:07.997Z,97380.00
2023-09-13T06:38:39.239Z,97396.00
2023-09-13T06:41:07.640Z,97398.00
2023-09-13T06:43:38.117Z,97401.00
2023-09-13T06:46:09.105Z,97406.00
2023-09-13T06:48:38.576Z,97407.00
2023-09-13T06:53:41.210Z,97419.00
2023-09-13T06:56:12.004Z,97411.00
2023-09-13T06:58:43.855Z,97404.00
2023-09-13T07:01:35.196Z,97417.00
2023-09-13T07:04:08.049Z,97414.00
2023-09-13T07:06:37.729Z,97415.00
2023-09-13T07:09:07.684Z,97419.00
2023-09-13T07:11:36.042Z,97431.00
2023-09-13T07:14:04.442Z,97432.00
2023-09-13T07:16:33.018Z,97437.00
2023-09-13T07:19:04.770Z,97433.00
2023-09-13T07:21:33.165Z,97424.00
2023-09-13T07:24:01.405Z,97438.00
2023-09-13T07:26:30.884Z,97421.00
2023-09-13T07:28:59.130Z,97434.00
2023-09-13T07:31:27.426Z,97432.00
2023-09-13T07:33:55.792Z,97424.00
2023-09-13T07:36:25.213Z,97429.00
2023-09-13T07:38:54.244Z,97432.00
2023-09-13T07:41:22.785Z,97438.00
2023-09-13T07:43:52.371Z,97440.00
2023-09-13T07:46:20.673Z,97443.00
2023-09-13T07:48:48.847Z,97441.00
2023-09-13T07:51:17.060Z,97438.00
2023-09-13T07:53:46.339Z,97438.00
2023-09-13T07:56:15.633Z,97450.00
2023-09-13T07:58:44.126Z,97446.00
2023-09-13T08:01:13.991Z,97454.00
2023-09-13T08:03:42.216Z,97451.00
2023-09-13T08:06:10.585Z,97463.00
2023-09-13T08:08:38.836Z,97466.00
2023-09-13T08:11:07.054Z,97465.00
2023-09-13T08:13:35.353Z,97463.00
2023-09-13T08:16:03.660Z,97453.00
2023-09-13T08:18:33.309Z,97462.00
2023-09-13T08:21:01.518Z,97466.00
2023-09-13T08:23:29.866Z,97463.00
2023-09-13T08:26:06.038Z,97467.00
2023-09-13T08:28:45.405Z,97469.00
2023-09-13T08:31:14.350Z,97468.00
2023-09-13T08:33:44.134Z,97481.00
2023-09-13T08:36:12.367Z,97469.00
2023-09-13T08:38:40.617Z,97484.00
2023-09-13T08:41:08.987Z,97481.00
2023-09-13T08:43:40.236Z,97484.00
2023-09-13T08:46:10.173Z,97486.00
2023-09-13T08:48:40.463Z,97493.00
2023-09-13T08:51:12.925Z,97488.00
2023-09-13T08:53:44.283Z,97491.00
2023-09-13T08:56:12.993Z,97504.00
2023-09-13T08:58:41.256Z,97512.00
2023-09-13T09:01:13.718Z,97509.00
2023-09-13T09:03:44.660Z,97504.00
2023-09-13T09:06:18.877Z,97504.00
2023-09-13T09:08:49.978Z,97517.00
2023-09-13T09:11:23.802Z,97516.00
2023-09-13T09:13:55.349Z,97527.00
2023-09-13T09:16:24.683Z,97529.00
2023-09-13T09:18:54.929Z,97521.00
2023-09-13T09:21:25.756Z,97531.00
2023-09-13T09:23:54.880Z,97541.00
2023-09-13T09:26:23.260Z,97545.00
2023-09-13T09:28:55.185Z,97540.00
2023-09-13T09:31:27.102Z,97532.00
2023-09-13T09:34:04.969Z,97540.00
2023-09-13T09:36:42.026Z,97544.00
2023-09-13T09:39:10.896Z,97545.00
2023-09-13T09:41:41.082Z,97549.00
2023-09-13T09:44:09.734Z,97543.00
2023-09-13T09:46:38.698Z,97540.00
2023-09-13T09:49:07.394Z,97547.00
2023-09-13T09:51:37.056Z,97548.00
2023-09-13T09:54:05.580Z,97553.00
2023-09-13T09:56:34.117Z,97550.00
2023-09-13T09:59:02.506Z,97548.00
2023-09-13T10:01:34.049Z,97552.00
2023-09-13T10:04:10.724Z,97555.00
2023-09-13T10:06:59.098Z,97550.00
2023-09-13T10:09:39.725Z,97570.00
2023-09-13T10:12:10.453Z,97573.00
2023-09-13T10:14:41.290Z,97576.00
2023-09-13T10:17:10.871Z,97570.00
2023-09-13T10:19:39.830Z,97569.00
2023-09-13T10:22:16.008Z,97571.00
2023-09-13T10:24:50.403Z,97556.00
2023-09-13T10:27:20.037Z,97560.00
2023-09-13T10:29:57.788Z,97550.00
2023-09-13T10:32:34.673Z,97557.00
2023-09-13T10:35:04.705Z,97557.00
2023-09-13T10:37:44.848Z,97565.00
2023-09-13T10:40:21.951Z,97561.00
2023-09-13T10:42:51.741Z,97566.00
2023-09-13T10:45:20.811Z,97555.00
2023-09-13T10:47:52.187Z,97563.00
2023-09-13T10:50:21.502Z,97561.00
2023-09-13T10:52:51.798Z,97551.00
2023-09-13T10:55:21.809Z,97552.00
2023-09-13T10:57:51.849Z,97547.00
2023-09-13T11:00:22.734Z,97550.00
2023-09-13T11:02:52.678Z,97557.00
2023-09-13T11:05:22.023Z,97552.00
2023-09-13T11:07:51.832Z,97563.00
2023-09-13T11:10:22.562Z,97565.00
2023-09-13T11:12:51.772Z,97558.00
2023-09-13T11:15:26.684Z,97559.00
2023-09-13T11:17:56.886Z,97555.00
2023-09-13T11:20:36.192Z,97559.00
2023-09-13T11:28:45.248Z,97561.00
2023-09-13T11:31:18.806Z,97572.00
2023-09-13T11:33:56.710Z,97557.00
2023-09-13T11:36:28.001Z,97563.00
2023-09-13T11:39:02.660Z,97568.00
2023-09-13T11:41:53.323Z,97568.00
2023-09-13T11:44:32.912Z,97552.00
2023-09-13T11:47:03.111Z,97557.00
2023-09-13T11:49:37.983Z,97550.00
2023-09-13T11:55:05.465Z,97549.00
2023-09-13T12:00:28.662Z,97550.00
2023-09-13T12:03:00.738Z,97548.00
2023-09-13T12:05:41.131Z,97542.00
2023-09-13T12:08:26.109Z,97543.00
2023-09-13T12:11:00.262Z,97547.00
2023-09-13T12:14:07.456Z,97551.00
2023-09-13T12:16:39.259Z,97537.00
2023-09-13T12:19:09.220Z,97534.00
2023-09-13T12:21:37.537Z,97537.00
2023-09-13T12:24:07.397Z,97539.00
2023-09-13T12:26:37.220Z,97535.00
2023-09-13T12:29:07.137Z,97533.00
2023-09-13T12:31:35.737Z,97527.00
2023-09-13T12:34:06.167Z,97532.00
2023-09-13T12:36:35.988Z,97528.00
2023-09-13T12:39:07.062Z,97533.00
2023-09-13T12:41:36.685Z,97542.00
2023-09-13T12:44:05.023Z,97536.00
2023-09-13T12:46:34.661Z,97523.00
2023-09-13T12:49:04.672Z,97516.00
2023-09-13T12:51:35.345Z,97525.00
2023-09-13T12:54:04.039Z,97524.00
2023-09-13T12:56:34.582Z,97524.00
2023-09-13T12:59:04.625Z,97523.00
2023-09-13T13:01:36.723Z,97528.00
2023-09-13T13:04:08.906Z,97514.00
2023-09-13T13:06:56.124Z,97519.00
2023-09-13T13:09:24.817Z,97522.00
2023-09-13T13:11:54.125Z,97520.00
2023-09-13T13:14:27.630Z,97520.00
2023-09-13T13:16:58.700Z,97515.00
2023-09-13T13:19:52.860Z,97522.00
2023-09-13T13:22:21.355Z,97526.00
2023-09-13T13:24:49.698Z,97525.00
2023-09-13T13:27:20.121Z,97523.00
2023-09-13T13:29:50.037Z,97527.00
2023-09-13T13:32:18.908Z,97525.00
2023-09-13T13:34:48.846Z,97527.00
2023-09-13T13:37:17.629Z,97515.00
2023-09-13T13:39:45.854Z,97516.00
2023-09-13T13:42:14.121Z,97528.00
2023-09-13T13:44:42.324Z,97523.00
2023-09-13T13:47:11.960Z,97520.00
2023-09-13T13:49:40.918Z,97530.00
2023-09-13T13:52:09.188Z,97517.00
2023-09-13T13:54:37.739Z,97526.00
2023-09-13T13:57:06.544Z,97529.00
2023-09-13T13:59:35.310Z,97518.00
2023-09-13T14:02:03.869Z,97517.00
2023-09-13T14:04:33.793Z,97503.00
2023-09-13T14:07:02.074Z,97519.00
2023-09-13T14:09:31.062Z,97526.00
2023-09-13T14:11:59.578Z,97511.00
2023-09-13T14:14:29.440Z,97520.00
2023-09-13T14:16:57.770Z,97521.00
2023-09-13T14:19:25.957Z,97515.00
2023-09-13T14:21:55.665Z,97515.00
2023-09-13T14:24:24.003Z,97517.00
2023-09-13T14:26:52.287Z,97531.00
2023-09-13T14:29:20.465Z,97533.00
2023-09-13T14:31:48.673Z,97533.00
2023-09-13T14:34:16.857Z,97528.00
2023-09-13T14:36:45.054Z,97533.00
2023-09-13T14:39:15.025Z,97529.00
2023-09-13T14:41:44.868Z,97531.00
2023-09-13T14:44:13.175Z,97520.00
2023-09-13T14:46:41.456Z,97524.00
2023-09-13T14:49:09.803Z,97528.00
2023-09-13T14:51:40.169Z,97529.00
2023-09-13T14:54:08.764Z,97522.00
2023-09-13T14:56:38.641Z,97523.00
2023-09-13T14:59:06.884Z,97530.00
2023-09-13T15:01:35.141Z,97528.00
2023-09-13T15:04:04.118Z,97525.00
2023-09-13T15:06:34.796Z,97531.00
2023-09-13T15:09:04.852Z,97537.00
2023-09-13T15:11:33.602Z,97537.00
2023-09-13T15:14:03.877Z,97533.00
2023-09-13T15:16:32.852Z,97542.00
2023-09-13T15:19:03.690Z,97533.00
2023-09-13T15:21:32.366Z,97541.00
2023-09-13T15:24:01.047Z,97532.00
2023-09-13T15:26:29.308Z,97543.00
2023-09-13T15:28:58.993Z,97541.00
2023-09-13T15:31:46.234Z,97539.00
2023-09-13T15:34:18.994Z,97539.00
2023-09-13T15:36:47.444Z,97530.00
2023-09-13T15:39:15.793Z,97533.00
2023-09-13T15:41:44.029Z,97542.00
2023-09-13T15:44:12.250Z,97543.00
2023-09-13T15:46:43.080Z,97549.00
2023-09-13T15:49:11.294Z,97549.00
2023-09-13T15:51:39.546Z,97541.00
2023-09-13T15:54:08.154Z,97548.00
2023-09-13T15:56:36.429Z,97550.00
2023-09-13T15:59:05.545Z,97537.00
2023-09-13T16:01:34.036Z,97529.00
2023-09-13T16:04:04.171Z,97530.00
2023-09-13T16:06:32.737Z,97537.00
2023-09-13T16:09:01.023Z,97539.00
2023-09-13T16:11:33.006Z,97549.00
2023-09-13T16:14:01.630Z,97553.00
2023-09-13T16:16:29.913Z,97542.00
2023-09-13T16:18:58.199Z,97556.00
2023-09-13T16:21:27.922Z,97548.00
2023-09-13T16:23:56.129Z,97541.00
2023-09-13T16:26:24.326Z,97547.00
2023-09-13T16:28:52.595Z,97550.00
2023-09-13T16:31:20.853Z,97543.00
2023-09-13T16:33:49.225Z,97547.00
2023-09-13T16:36:17.428Z,97544.00
2023-09-13T16:38:47.289Z,97559.00
2023-09-13T16:41:15.670Z,97549.00
2023-09-13T16:43:43.814Z,97546.00
2023-09-13T16:46:12.036Z,97552.00
2023-09-13T16:48:40.243Z,97544.00
2023-09-13T16:51:08.508Z,97553.00
2023-09-13T16:53:37.363Z,97542.00
2023-09-13T16:56:07.028Z,97556.00
2023-09-13T16:58:35.191Z,97562.00
2023-09-13T17:01:04.585Z,97566.00
2023-09-13T17:03:39.032Z,97561.00
2023-09-13T17:06:09.458Z,97563.00
2023-09-13T17:08:38.131Z,97575.00
2023-09-13T17:11:09.587Z,97557.00
2023-09-13T17:13:37.884Z,97570.00
2023-09-13T17:16:06.555Z,97577.00
2023-09-13T17:18:35.274Z,97573.00
2023-09-13T17:21:04.393Z,97572.00
2023-09-13T17:23:32.828Z,97568.00
2023-09-13T17:26:01.108Z,97581.00
2023-09-13T17:28:30.931Z,97579.00
2023-09-13T17:31:00.790Z,97586.00
2023-09-13T17:33:29.368Z,97589.00
2023-09-13T17:35:57.915Z,97588.00
2023-09-13T17:38:26.090Z,97592.00
2023-09-13T17:40:54.301Z,97588.00
2023-09-13T17:43:22.813Z,97589.00
2023-09-13T17:45:52.820Z,97595.00
2023-09-13T17:48:21.238Z,97597.00
2023-09-13T17:50:49.589Z,97586.00
2023-09-13T17:53:21.844Z,97591.00
2023-09-13T17:55:51.618Z,97607.00
2023-09-13T17:58:19.921Z,97608.00
2023-09-13T18:00:48.175Z,97615.00
2023-09-13T18:03:18.741Z,97612.00
2023-09-13T18:05:47.187Z,97620.00
2023-09-13T18:08:15.497Z,97611.00
2023-09-13T18:10:43.954Z,97623.00
2023-09-13T18:13:12.325Z,97618.00
2023-09-13T18:15:40.690Z,97624.00
2023-09-13T18:18:09.359Z,97626.00
2023-09-13T18:20:39.786Z,97625.00
2023-09-13T18:23:08.511Z,97631.00
2023-09-13T18:25:37.835Z,97637.00
2023-09-13T18:28:07.894Z,97624.00
2023-09-13T18:30:36.342Z,97622.00
2023-09-13T18:33:05.199Z,97631.00
2023-09-13T18:35:33.869Z,97629.00
2023-09-13T18:38:04.263Z,97642.00
2023-09-13T18:40:32.708Z,97642.00
2023-09-13T18:43:02.492Z,97654.00
2023-09-13T18:45:33.902Z,97654.00
2023-09-13T18:48:02.258Z,97644.00
2023-09-13T18:50:30.568Z,97646.00
2023-09-13T18:52:58.888Z,97656.00
2023-09-13T18:55:28.689Z,97653.00
2023-09-13T18:57:56.930Z,97651.00
2023-09-13T19:00:25.230Z,97658.00
2023-09-13T19:02:55.594Z,97667.00
2023-09-13T19:05:26.757Z,97674.00
2023-09-13T19:07:55.549Z,97672.00
2023-09-13T19:10:23.894Z,97679.00
2023-09-13T19:12:53.641Z,97690.00
2023-09-13T19:15:21.994Z,97685.00
2023-09-13T19:17:50.527Z,97685.00
2023-09-13T19:20:19.218Z,97694.00
2023-09-13T19:22:48.400Z,97689.00
2023-09-13T19:25:16.876Z,97693.00
2023-09-13T19:27:45.614Z,97704.00
2023-09-13T19:30:15.858Z,97702.00
2023-09-13T19:32:44.153Z,97700.00
2023-09-13T19:35:12.788Z,97705.00
2023-09-13T19:37:41.103Z,97715.00
2023-09-13T19:40:11.906Z,97709.00
2023-09-13T19:42:40.285Z,97702.00
2023-09-13T19:45:09.798Z,97708.00
2023-09-13T19:47:39.520Z,97717.00
2023-09-13T19:50:10.192Z,97715.00
2023-09-13T19:52:38.707Z,97714.00
2023-09-13T19:55:10.245Z,97716.00
2023-09-13T19:57:38.462Z,97719.00
2023-09-13T20:00:10.638Z,97712.00
2023-09-13T20:02:40.516Z,97710.00
2023-09-13T20:05:09.626Z,97722.00
2023-09-13T20:07:37.888Z,97717.00
2023-09-13T20:10:08.327Z,97726.00
2023-09-13T20:12:37.918Z,97722.00
2023-09-13T20:15:07.335Z,97723.00
2023-09-13T20:17:35.638Z,97719.00
2023-09-13T20:20:06.897Z,97721.00
2023-09-13T20:22:37.521Z,97727.00
2023-09-13T20:25:07.770Z,97734.00
2023-09-13T20:27:39.744Z,97726.00
2023-09-13T20:30:10.244Z,97735.00
2023-09-13T20:32:38.494Z,97735.00
2023-09-13T20:35:09.006Z,97745.00
2023-09-13T20:37:37.355Z,97752.00
2023-09-13T20:40:07.103Z,97743.00
2023-09-13T20:42:35.559Z,97756.00
2023-09-13T20:45:04.180Z,97765.00
2023-09-13T20:47:32.492Z,97768.00
2023-09-13T20:50:00.740Z,97761.00
2023-09-13T20:52:30.403Z,97772.00
2023-09-13T20:54:58.666Z,97771.00
2023-09-13T20:57:27.172Z,97769.00
2023-09-13T20:59:55.656Z,97778.00
2023-09-13T21:02:24.101Z,97772.00
2023-09-13T21:04:55.950Z,97770.00
2023-09-13T21:07:25.598Z,97780.00
2023-09-13T21:09:55.308Z,97772.00
2023-09-13T21:12:26.285Z,97768.00
2023-09-13T21:14:54.844Z,97773.00
2023-09-13T21:17:23.996Z,97775.00
2023-09-13T21:19:53.834Z,97775.00
2023-09-13T21:22:22.180Z,97771.00
2023-09-13T21:24:50.461Z,97785.00
2023-09-13T21:27:20.009Z,97785.00
2023-09-13T21:29:48.257Z,97773.00
2023-09-13T21:32:16.592Z,97787.00
2023-09-13T21:34:58.842Z,97794.00
2023-09-13T21:37:32.197Z,97791.00
2023-09-13T21:40:02.968Z,97785.00
2023-09-13T21:42:32.713Z,97788.00
2023-09-13T21:45:01.277Z,97789.00
2023-09-13T21:47:29.673Z,97794.00
2023-09-13T21:49:58.172Z,97792.00
2023-09-13T21:52:26.559Z,97804.00
2023-09-13T21:54:56.337Z,97813.00
2023-09-13T21:57:29.670Z,97799.00
2023-09-13T21:59:59.695Z,97795.00
2023-09-13T22:02:28.318Z,97797.00
2023-09-13T22:04:57.772Z,97802.00
2023-09-13T22:07:26.336Z,97797.00
2023-09-13T22:09:54.913Z,97794.00
2023-09-13T22:12:23.586Z,97791.00
2023-09-13T22:14:55.221Z,97799.00
2023-09-13T22:17:25.269Z,97796.00
2023-09-13T22:19:57.239Z,97793.00
2023-09-13T22:22:26.883Z,97804.00
2023-09-13T22:24:58.669Z,97807.00
2023-09-13T22:27:28.609Z,97799.00
2023-09-13T22:29:57.422Z,97808.00
2023-09-13T22:32:31.477Z,97802.00
2023-09-13T22:35:03.112Z,97794.00
2023-09-13T22:37:31.949Z,97795.00
2023-09-13T22:40:00.534Z,97797.00
2023-09-13T22:42:29.109Z,97802.00
2023-09-13T22:44:57.599Z,97801.00
2023-09-13T22:47:28.755Z,97810.00
2023-09-13T22:49:57.432Z,97811.00
2023-09-13T22:52:27.049Z,97810.00
2023-09-13T22:54:56.617Z,97818.00
2023-09-13T22:57:25.324Z,97804.00
2023-09-13T22:59:53.851Z,97824.00
2023-09-13T23:02:22.431Z,97821.00
2023-09-13T23:04:52.273Z,97811.00
2023-09-13T23:07:21.105Z,97819.00
2023-09-13T23:09:49.793Z,97817.00
2023-09-13T23:12:18.052Z,97815.00
2023-09-13T23:14:46.238Z,97813.00
2023-09-13T23:17:16.060Z,97819.00
2023-09-13T23:19:44.237Z,97820.00
2023-09-13T23:22:13.790Z,97820.00
2023-09-13T23:24:42.000Z,97824.00
2023-09-13T23:27:10.202Z,97819.00
2023-09-13T23:29:39.671Z,97824.00
2023-09-13T23:32:08.000Z,97828.00
2023-09-13T23:34:36.210Z,97838.00
2023-09-13T23:37:04.700Z,97822.00
2023-09-13T23:39:35.185Z,97825.00
2023-09-13T23:42:04.886Z,97827.00
2023-09-13T23:44:33.055Z,97837.00
2023-09-13T23:47:01.457Z,97837.00
2023-09-13T23:49:29.772Z,97835.00
2023-09-13T23:51:58.043Z,97840.00
2023-09-13T23:54:26.234Z,97849.00
2023-09-13T23:56:55.748Z,97840.00
2023-09-13T23:59:24.003Z,97844.00
